Flight Track Log - Related Links

Times and Time Zones

All times are in EDT time to prevent confusion due to time zone crossing. See the USC105 flight status page for this flight to view local times or setup timezone preferences in your user account.

Time Position Orientation Groundspeed Altitude Reporting Facility
EDT Latitude Longitude Course Direction KTS MPH feet Rate Location/Type
Fri 07:26:44 AM 42.2128 -83.5717 211° Southwest 104 120 2,600  Level Cleveland Center
Fri 07:27:45 AM 42.1853 -83.5900 206° Southwest 144 166 3,100 256 Climbing Cleveland Center
Fri 07:28:41 AM 42.1492 -83.6136 206° Southwest 153 176 3,100  Level Cleveland Center
Fri 07:29:42 AM 42.1056 -83.6086 175° South 169 194 3,100  Level Cleveland Center
Fri 07:30:43 AM 42.0625 -83.5844 157° South 171 197 3,100 372 Level Cleveland Center
Fri 07:32:00 AM 41.9337 -83.5456 167° South  Level Estimated
Fri 07:39:00 AM 41.2485 -83.4896 204° Southwest  Level FlightAware Approximate
Fri 07:40:00 AM 41.1541 -83.5442 204° Southwest  Level FlightAware Approximate
Fri 07:40:27 AM 41.6619 -83.4097 161° South 175 201 7,100  Level Indianapolis Center
Fri 07:41:00 AM 41.1089 -83.5229 161° South  Level Estimated
Fri 07:41:28 AM 41.6131 -83.3950 167° South 177 204 7,100  Level Indianapolis Center
Fri 07:42:00 AM 41.0637 -83.5017 161° South  Level Estimated
Fri 07:42:30 AM 41.5625 -83.3808 168° South 181 208 7,100  Level Indianapolis Center
Fri 07:43:00 AM 41.0185 -83.4806 161° South  Level Estimated
Fri 07:43:31 AM 41.5133 -83.3669 168° South 180 207 7,100  Level Indianapolis Center
Fri 07:44:00 AM 40.9733 -83.4594 161° South  Level Estimated
Fri 07:44:32 AM 41.4625 -83.3556 170° South 182 209 7,100  Level Indianapolis Center
Fri 07:45:00 AM 40.9280 -83.4383 161° South  Level Estimated
Fri 07:45:34 AM 41.4114 -83.3417 168° South 184 212 7,100  Level Indianapolis Center
Fri 07:46:35 AM 41.3597 -83.3278 169° South 187 215 7,100  Level Indianapolis Center
Fri 07:47:37 AM 41.3006 -83.3128 169° South 187 215 7,100  Level Indianapolis Center
Fri 07:48:38 AM 41.2500 -83.2994 169° South 184 212 7,100  Level Indianapolis Center
Fri 07:49:39 AM 41.1989 -83.2867 169° South 184 212 7,100  Level Indianapolis Center
Fri 07:50:41 AM 41.1486 -83.2736 169° South 183 211 7,100  Level Indianapolis Center
Fri 07:51:42 AM 41.0986 -83.2594 168° South 182 209 7,100  Level Indianapolis Center
Fri 07:52:43 AM 41.0481 -83.2508 173° South 182 209 7,100  Level Indianapolis Center
Fri 07:53:45 AM 40.9972 -83.2392 170° South 183 211 7,100  Level Indianapolis Center
Fri 07:54:46 AM 40.9475 -83.2256 168° South 182 209 7,100  Level Indianapolis Center
Fri 07:55:48 AM 40.8975 -83.2119 168° South 181 208 7,100  Level Indianapolis Center
Fri 07:56:49 AM 40.8472 -83.2006 170° South 181 208 7,100  Level Indianapolis Center
Fri 07:57:51 AM 40.7969 -83.1872 169° South 183 211 7,100  Level Indianapolis Center
Fri 07:58:52 AM 40.7400 -83.1725 169° South 180 207 7,100  Level Indianapolis Center
Fri 07:59:53 AM 40.6897 -83.1583 168° South 182 209 7,100 -49 Level Indianapolis Center
Fri 08:00:55 AM 40.6383 -83.1464 170° South 185 213 7,000 -49 Descending Indianapolis Center
Fri 08:01:56 AM 40.5883 -83.1333 169° South 183 211 7,000 49 Level Indianapolis Center
Fri 08:02:58 AM 40.5386 -83.1189 168° South 183 211 7,100  Climbing Indianapolis Center
Fri 08:03:59 AM 40.4908 -83.1069 169° South 181 208 7,000 -49 Descending Indianapolis Center
Fri 08:05:01 AM 40.4400 -83.0939 169° South 184 212 7,000 61 Level Indianapolis Center
Fri 08:05:38 AM 40.4008 -83.0922 178° South 184 212 7,100  Climbing Indianapolis Center
Fri 08:06:45 AM 40.3456 -83.0969 184° South 183 211 7,000  Descending Indianapolis Center
Fri 08:07:39 AM 40.2994 -83.0975 181° South 183 211 7,100 55 Climbing Indianapolis Center
Fri 08:08:34 AM 40.2514 -83.0953 178° South 184 212 7,100 -69 Level Indianapolis Center
Fri 08:09:06 AM 40.2253 -83.0958 181° South 183 211 7,000 -64 Descending Indianapolis Center
Fri 08:10:08 AM 40.1739 -83.0961 180° South 184 212 7,000 49 Level Indianapolis Center
Fri 08:11:09 AM 40.1228 -83.0956 180° South 183 211 7,100 64 Climbing Indianapolis Center
Fri 08:11:42 AM 40.0914 -83.0967 182° South 184 212 7,100  Level Indianapolis Center
Fri 08:12:49 AM 40.0344 -83.0983 181° South 179 206 7,100  Level Indianapolis Center
Fri 08:13:43 AM 39.9928 -83.0969 179° South 172 198 7,100 -71 Level Indianapolis Center
Fri 08:14:14 AM 39.9744 -83.0958 177° South 171 197 7,000 -492 Descending Indianapolis Center
Fri 08:14:44 AM 39.9444 -83.0972 182° South 167 192 6,600 -689 Descending Indianapolis Center
Fri 08:15:15 AM 39.9261 -83.0956 176° South 172 198 6,300 -1,075 Descending Indianapolis Center
Fri 08:15:51 AM 39.8878 -83.0961 181° South 189 217 5,400 -1,176 Descending Indianapolis Center
Fri 08:16:57 AM 39.8331 -83.0956 180° South 181 208 4,300 -1,038 Descending Indianapolis Center
Fri 08:18:04 AM 39.7747 -83.0914 177° South 175 201 3,100 -678 Descending Indianapolis Center
Fri 08:18:52 AM 39.7439 -83.1056 199° South 157 181 3,000 -77 Descending Indianapolis Center
Fri 08:19:22 AM 39.7281 -83.1197 215° Southwest 152 175 3,000  Level Indianapolis Center
Fri 08:19:53 AM 39.7100 -83.1083 154° Southeast 147 169 3,000  Level Indianapolis Center
Fri 08:20:23 AM 39.7106 -83.0806 89° East 147 169 3,000  Level Indianapolis Center
Fri 08:20:54 AM 39.7197 -83.0528 67° East 156 180 3,000 -194 Level Indianapolis Center
Fri 08:21:25 AM 39.7333 -83.0342 46° Northeast 151 174 2,800 -636 Descending Indianapolis Center
Fri 08:22:00 AM 39.7531 -83.0117 41° Northeast 151 174 2,300 -813 Descending Indianapolis Center
Fri 08:23:01 AM 39.7794 -82.9753 47° Northeast 139 160 1,500 -483 Descending Indianapolis Center
Fri 08:24:29 AM 39.8164 -82.9294 44° Northeast 141 162 1,100 -273 Descending Indianapolis Center

Login

Don't have an account? Register now (free) for customized features, flight alerts, and more!